sensor_id;sensor_type;location;lat;lon;timestamp;temperature;humidity
54930;DHT22;40833;53.238;6.576;2023-07-22T00:00:49;13.40;99.90
54930;DHT22;40833;53.238;6.576;2023-07-22T00:03:15;13.40;99.90
54930;DHT22;40833;53.238;6.576;2023-07-22T00:05:41;13.40;99.90
54930;DHT22;40833;53.238;6.576;2023-07-22T00:08:07;13.40;99.90
54930;DHT22;40833;53.238;6.576;2023-07-22T00:10:32;13.40;99.90
54930;DHT22;40833;53.238;6.576;2023-07-22T00:12:58;13.40;99.90
54930;DHT22;40833;53.238;6.576;2023-07-22T00:15:24;13.40;99.90
54930;DHT22;40833;53.238;6.576;2023-07-22T00:17:50;13.40;99.90
54930;DHT22;40833;53.238;6.576;2023-07-22T00:20:16;13.40;99.90
54930;DHT22;40833;53.238;6.576;2023-07-22T00:22:42;13.40;99.90
54930;DHT22;40833;53.238;6.576;2023-07-22T00:25:10;13.40;99.90
54930;DHT22;40833;53.238;6.576;2023-07-22T00:27:40;13.50;99.90
54930;DHT22;40833;53.238;6.576;2023-07-22T00:30:07;13.40;99.90
54930;DHT22;40833;53.238;6.576;2023-07-22T00:32:32;13.40;99.90
54930;DHT22;40833;53.238;6.576;2023-07-22T00:34:58;13.30;99.90
54930;DHT22;40833;53.238;6.576;2023-07-22T00:37:24;13.20;99.90
54930;DHT22;40833;53.238;6.576;2023-07-22T00:39:51;13.20;99.90
54930;DHT22;40833;53.238;6.576;2023-07-22T00:42:16;13.10;99.90
54930;DHT22;40833;53.238;6.576;2023-07-22T00:44:42;13.20;99.90
54930;DHT22;40833;53.238;6.576;2023-07-22T00:47:08;13.10;99.90
54930;DHT22;40833;53.238;6.576;2023-07-22T00:49:34;13.00;99.90
54930;DHT22;40833;53.238;6.576;2023-07-22T00:52:02;12.90;99.90
54930;DHT22;40833;53.238;6.576;2023-07-22T00:54:29;12.90;99.90
54930;DHT22;40833;53.238;6.576;2023-07-22T00:56:56;12.90;99.90
54930;DHT22;40833;53.238;6.576;2023-07-22T00:59:23;12.80;99.90
54930;DHT22;40833;53.238;6.576;2023-07-22T01:01:49;12.80;99.90
54930;DHT22;40833;53.238;6.576;2023-07-22T01:04:16;12.80;99.90
54930;DHT22;40833;53.238;6.576;2023-07-22T01:06:44;12.80;99.90
54930;DHT22;40833;53.238;6.576;2023-07-22T01:09:10;12.70;99.90
54930;DHT22;40833;53.238;6.576;2023-07-22T01:11:36;12.70;99.90
54930;DHT22;40833;53.238;6.576;2023-07-22T01:14:02;12.70;99.90
54930;DHT22;40833;53.238;6.576;2023-07-22T01:16:29;12.70;99.90
54930;DHT22;40833;53.238;6.576;2023-07-22T01:18:55;12.70;99.90
54930;DHT22;40833;53.238;6.576;2023-07-22T01:21:25;12.70;99.90
54930;DHT22;40833;53.238;6.576;2023-07-22T01:23:52;12.60;99.90
54930;DHT22;40833;53.238;6.576;2023-07-22T01:26:19;12.60;99.90
54930;DHT22;40833;53.238;6.576;2023-07-22T01:28:45;12.60;99.90
54930;DHT22;40833;53.238;6.576;2023-07-22T01:31:11;12.60;99.90
54930;DHT22;40833;53.238;6.576;2023-07-22T01:33:37;12.50;99.90
54930;DHT22;40833;53.238;6.576;2023-07-22T01:36:03;12.50;99.90
54930;DHT22;40833;53.238;6.576;2023-07-22T01:38:29;12.50;99.90
54930;DHT22;40833;53.238;6.576;2023-07-22T01:40:56;12.50;99.90
54930;DHT22;40833;53.238;6.576;2023-07-22T01:43:22;12.40;99.90
54930;DHT22;40833;53.238;6.576;2023-07-22T01:45:48;12.40;99.90
54930;DHT22;40833;53.238;6.576;2023-07-22T01:48:13;12.40;99.90
54930;DHT22;40833;53.238;6.576;2023-07-22T01:50:39;12.40;99.90
54930;DHT22;40833;53.238;6.576;2023-07-22T01:53:04;12.30;99.90
54930;DHT22;40833;53.238;6.576;2023-07-22T01:55:31;12.30;99.90
54930;DHT22;40833;53.238;6.576;2023-07-22T01:57:58;12.20;99.90
54930;DHT22;40833;53.238;6.576;2023-07-22T02:00:23;12.20;99.90
54930;DHT22;40833;53.238;6.576;2023-07-22T02:02:49;12.20;99.90
54930;DHT22;40833;53.238;6.576;2023-07-22T02:05:15;12.10;99.90
54930;DHT22;40833;53.238;6.576;2023-07-22T02:07:41;12.10;99.90
54930;DHT22;40833;53.238;6.576;2023-07-22T02:10:07;12.00;99.90
54930;DHT22;40833;53.238;6.576;2023-07-22T02:12:33;11.90;99.90
54930;DHT22;40833;53.238;6.576;2023-07-22T02:14:59;12.00;99.90
54930;DHT22;40833;53.238;6.576;2023-07-22T02:17:25;11.90;99.90
54930;DHT22;40833;53.238;6.576;2023-07-22T02:19:51;11.90;99.90
54930;DHT22;40833;53.238;6.576;2023-07-22T02:22:17;11.80;99.90
54930;DHT22;40833;53.238;6.576;2023-07-22T02:24:43;11.80;99.90
54930;DHT22;40833;53.238;6.576;2023-07-22T02:27:08;11.80;99.90
54930;DHT22;40833;53.238;6.576;2023-07-22T02:29:34;11.80;99.90
54930;DHT22;40833;53.238;6.576;2023-07-22T02:32:00;11.80;99.90
54930;DHT22;40833;53.238;6.576;2023-07-22T02:34:26;11.70;99.90
54930;DHT22;40833;53.238;6.576;2023-07-22T02:36:52;11.80;99.90
54930;DHT22;40833;53.238;6.576;2023-07-22T02:39:18;11.70;99.90
54930;DHT22;40833;53.238;6.576;2023-07-22T02:41:44;11.70;99.90
54930;DHT22;40833;53.238;6.576;2023-07-22T02:44:09;11.70;99.90
54930;DHT22;40833;53.238;6.576;2023-07-22T02:46:35;11.90;99.90
54930;DHT22;40833;53.238;6.576;2023-07-22T02:49:01;11.60;99.90
54930;DHT22;40833;53.238;6.576;2023-07-22T02:51:26;11.60;99.90
54930;DHT22;40833;53.238;6.576;2023-07-22T02:53:52;11.50;99.90
54930;DHT22;40833;53.238;6.576;2023-07-22T03:01:10;11.50;99.90
54930;DHT22;40833;53.238;6.576;2023-07-22T03:03:36;11.50;99.90
54930;DHT22;40833;53.238;6.576;2023-07-22T03:06:03;11.50;99.90
54930;DHT22;40833;53.238;6.576;2023-07-22T03:08:29;11.50;99.90
54930;DHT22;40833;53.238;6.576;2023-07-22T03:10:55;11.50;99.90
54930;DHT22;40833;53.238;6.576;2023-07-22T03:13:21;11.50;99.90
54930;DHT22;40833;53.238;6.576;2023-07-22T03:15:47;11.40;99.90
54930;DHT22;40833;53.238;6.576;2023-07-22T03:18:13;11.40;99.90
54930;DHT22;40833;53.238;6.576;2023-07-22T03:20:39;11.40;99.90
54930;DHT22;40833;53.238;6.576;2023-07-22T03:23:05;11.40;99.90
54930;DHT22;40833;53.238;6.576;2023-07-22T03:25:32;11.30;99.90
54930;DHT22;40833;53.238;6.576;2023-07-22T03:28:05;11.30;99.90
54930;DHT22;40833;53.238;6.576;2023-07-22T03:30:32;11.40;99.90
54930;DHT22;40833;53.238;6.576;2023-07-22T03:32:59;11.30;99.90
54930;DHT22;40833;53.238;6.576;2023-07-22T03:35:26;11.30;99.90
54930;DHT22;40833;53.238;6.576;2023-07-22T03:37:52;11.30;99.90
54930;DHT22;40833;53.238;6.576;2023-07-22T03:40:17;11.30;99.90
54930;DHT22;40833;53.238;6.576;2023-07-22T03:42:46;11.30;99.90
54930;DHT22;40833;53.238;6.576;2023-07-22T03:45:12;11.30;99.90
54930;DHT22;40833;53.238;6.576;2023-07-22T03:47:39;11.40;99.90
54930;DHT22;40833;53.238;6.576;2023-07-22T03:50:05;11.40;99.90
54930;DHT22;40833;53.238;6.576;2023-07-22T03:52:31;11.40;99.90
54930;DHT22;40833;53.238;6.576;2023-07-22T03:54:57;11.40;99.90
54930;DHT22;40833;53.238;6.576;2023-07-22T03:57:29;11.70;99.90
54930;DHT22;40833;53.238;6.576;2023-07-22T03:59:55;11.40;99.90
54930;DHT22;40833;53.238;6.576;2023-07-22T04:02:21;11.50;99.90
54930;DHT22;40833;53.238;6.576;2023-07-22T04:04:47;11.50;99.90
54930;DHT22;40833;53.238;6.576;2023-07-22T04:07:13;11.60;99.90
54930;DHT22;40833;53.238;6.576;2023-07-22T04:09:39;11.60;99.90
54930;DHT22;40833;53.238;6.576;2023-07-22T04:12:06;11.60;99.90
54930;DHT22;40833;53.238;6.576;2023-07-22T04:14:32;11.70;99.90
54930;DHT22;40833;53.238;6.576;2023-07-22T04:16:58;11.80;99.90
54930;DHT22;40833;53.238;6.576;2023-07-22T04:19:24;11.90;99.90
54930;DHT22;40833;53.238;6.576;2023-07-22T04:21:49;11.90;99.90
54930;DHT22;40833;53.238;6.576;2023-07-22T04:24:15;12.00;99.90
54930;DHT22;40833;53.238;6.576;2023-07-22T04:26:44;12.00;99.90
54930;DHT22;40833;53.238;6.576;2023-07-22T04:29:10;12.10;99.90
54930;DHT22;40833;53.238;6.576;2023-07-22T04:31:37;12.20;99.90
54930;DHT22;40833;53.238;6.576;2023-07-22T04:34:03;12.20;99.90
54930;DHT22;40833;53.238;6.576;2023-07-22T04:36:29;12.30;99.90
54930;DHT22;40833;53.238;6.576;2023-07-22T04:38:54;12.40;99.90
54930;DHT22;40833;53.238;6.576;2023-07-22T04:41:20;12.40;99.90
54930;DHT22;40833;53.238;6.576;2023-07-22T04:43:46;12.50;99.90
54930;DHT22;40833;53.238;6.576;2023-07-22T04:46:13;12.60;99.90
54930;DHT22;40833;53.238;6.576;2023-07-22T04:48:39;12.60;99.90
54930;DHT22;40833;53.238;6.576;2023-07-22T04:51:04;12.60;99.90
54930;DHT22;40833;53.238;6.576;2023-07-22T04:53:30;12.70;99.90
54930;DHT22;40833;53.238;6.576;2023-07-22T04:55:56;12.70;99.90
54930;DHT22;40833;53.238;6.576;2023-07-22T04:58:21;12.70;99.90
54930;DHT22;40833;53.238;6.576;2023-07-22T05:00:47;12.80;99.90
54930;DHT22;40833;53.238;6.576;2023-07-22T05:03:14;12.80;99.90
54930;DHT22;40833;53.238;6.576;2023-07-22T05:05:39;12.90;99.90
54930;DHT22;40833;53.238;6.576;2023-07-22T05:08:05;12.90;99.90
54930;DHT22;40833;53.238;6.576;2023-07-22T05:10:33;13.00;99.90
54930;DHT22;40833;53.238;6.576;2023-07-22T05:12:59;13.00;99.90
54930;DHT22;40833;53.238;6.576;2023-07-22T05:15:24;12.90;99.90
54930;DHT22;40833;53.238;6.576;2023-07-22T05:17:50;13.00;99.90
54930;DHT22;40833;53.238;6.576;2023-07-22T05:20:16;13.00;99.90
54930;DHT22;40833;53.238;6.576;2023-07-22T05:22:42;13.10;99.90
54930;DHT22;40833;53.238;6.576;2023-07-22T05:25:08;13.10;99.90
54930;DHT22;40833;53.238;6.576;2023-07-22T05:27:35;13.10;99.90
54930;DHT22;40833;53.238;6.576;2023-07-22T05:30:01;13.20;99.90
54930;DHT22;40833;53.238;6.576;2023-07-22T05:32:30;13.20;99.90
54930;DHT22;40833;53.238;6.576;2023-07-22T05:34:56;13.20;99.90
54930;DHT22;40833;53.238;6.576;2023-07-22T05:37:23;13.30;99.90
54930;DHT22;40833;53.238;6.576;2023-07-22T05:39:49;13.40;99.90
54930;DHT22;40833;53.238;6.576;2023-07-22T05:42:15;13.50;99.90
54930;DHT22;40833;53.238;6.576;2023-07-22T05:44:40;13.50;99.90
54930;DHT22;40833;53.238;6.576;2023-07-22T05:47:06;13.60;99.90
54930;DHT22;40833;53.238;6.576;2023-07-22T05:49:31;13.70;99.90
54930;DHT22;40833;53.238;6.576;2023-07-22T05:51:57;13.70;99.90
54930;DHT22;40833;53.238;6.576;2023-07-22T05:54:23;13.80;99.90
54930;DHT22;40833;53.238;6.576;2023-07-22T05:56:48;13.90;99.90
54930;DHT22;40833;53.238;6.576;2023-07-22T05:59:14;14.00;99.90
54930;DHT22;40833;53.238;6.576;2023-07-22T06:01:40;14.30;99.90
54930;DHT22;40833;53.238;6.576;2023-07-22T06:04:06;14.10;99.90
54930;DHT22;40833;53.238;6.576;2023-07-22T06:06:32;14.20;99.90
54930;DHT22;40833;53.238;6.576;2023-07-22T06:08:57;14.30;99.90
54930;DHT22;40833;53.238;6.576;2023-07-22T06:11:23;14.30;99.90
54930;DHT22;40833;53.238;6.576;2023-07-22T06:13:49;14.50;99.90
54930;DHT22;40833;53.238;6.576;2023-07-22T06:16:14;14.50;99.90
54930;DHT22;40833;53.238;6.576;2023-07-22T06:18:40;14.70;99.90
54930;DHT22;40833;53.238;6.576;2023-07-22T06:21:06;14.80;99.90
54930;DHT22;40833;53.238;6.576;2023-07-22T06:23:32;14.80;99.90
54930;DHT22;40833;53.238;6.576;2023-07-22T06:25:57;14.80;99.90
54930;DHT22;40833;53.238;6.576;2023-07-22T06:28:23;15.00;99.90
54930;DHT22;40833;53.238;6.576;2023-07-22T06:30:49;15.00;99.90
54930;DHT22;40833;53.238;6.576;2023-07-22T06:33:14;15.00;99.90
54930;DHT22;40833;53.238;6.576;2023-07-22T06:35:41;15.10;99.90
54930;DHT22;40833;53.238;6.576;2023-07-22T06:38:07;15.10;99.90
54930;DHT22;40833;53.238;6.576;2023-07-22T06:40:33;15.20;99.90
54930;DHT22;40833;53.238;6.576;2023-07-22T06:42:59;15.30;99.90
54930;DHT22;40833;53.238;6.576;2023-07-22T06:45:24;15.40;99.90
54930;DHT22;40833;53.238;6.576;2023-07-22T06:47:50;15.40;99.90
54930;DHT22;40833;53.238;6.576;2023-07-22T06:50:16;15.50;99.90
54930;DHT22;40833;53.238;6.576;2023-07-22T06:52:41;15.50;99.90
54930;DHT22;40833;53.238;6.576;2023-07-22T06:55:07;15.60;99.90
54930;DHT22;40833;53.238;6.576;2023-07-22T06:57:33;15.70;99.90
54930;DHT22;40833;53.238;6.576;2023-07-22T06:59:59;15.80;99.90
54930;DHT22;40833;53.238;6.576;2023-07-22T07:02:26;15.90;99.90
54930;DHT22;40833;53.238;6.576;2023-07-22T07:04:52;16.10;99.90
54930;DHT22;40833;53.238;6.576;2023-07-22T07:07:18;16.20;99.90
54930;DHT22;40833;53.238;6.576;2023-07-22T07:09:44;16.30;99.90
54930;DHT22;40833;53.238;6.576;2023-07-22T07:12:09;16.40;99.90
54930;DHT22;40833;53.238;6.576;2023-07-22T07:14:35;16.50;99.90
54930;DHT22;40833;53.238;6.576;2023-07-22T07:17:02;16.60;99.90
54930;DHT22;40833;53.238;6.576;2023-07-22T07:19:28;16.70;99.90
54930;DHT22;40833;53.238;6.576;2023-07-22T07:21:54;16.80;99.90
54930;DHT22;40833;53.238;6.576;2023-07-22T07:24:20;16.80;99.90
54930;DHT22;40833;53.238;6.576;2023-07-22T07:26:46;16.80;99.90
54930;DHT22;40833;53.238;6.576;2023-07-22T07:29:11;16.80;99.90
54930;DHT22;40833;53.238;6.576;2023-07-22T07:31:38;16.70;99.90
54930;DHT22;40833;53.238;6.576;2023-07-22T07:34:03;16.70;99.90
54930;DHT22;40833;53.238;6.576;2023-07-22T07:36:29;16.70;99.90
54930;DHT22;40833;53.238;6.576;2023-07-22T07:38:55;16.70;99.90
54930;DHT22;40833;53.238;6.576;2023-07-22T07:41:21;16.70;99.90
54930;DHT22;40833;53.238;6.576;2023-07-22T07:43:47;16.70;99.90
54930;DHT22;40833;53.238;6.576;2023-07-22T07:46:21;16.80;99.90
54930;DHT22;40833;53.238;6.576;2023-07-22T07:48:55;16.90;99.90
54930;DHT22;40833;53.238;6.576;2023-07-22T07:51:22;17.00;99.90
54930;DHT22;40833;53.238;6.576;2023-07-22T07:53:49;17.00;99.90
54930;DHT22;40833;53.238;6.576;2023-07-22T07:56:16;17.10;99.90
54930;DHT22;40833;53.238;6.576;2023-07-22T07:58:43;17.10;99.90
54930;DHT22;40833;53.238;6.576;2023-07-22T08:01:09;17.30;99.90
54930;DHT22;40833;53.238;6.576;2023-07-22T08:03:35;17.40;99.90
54930;DHT22;40833;53.238;6.576;2023-07-22T08:06:02;17.40;99.90
54930;DHT22;40833;53.238;6.576;2023-07-22T08:08:28;17.50;99.90
54930;DHT22;40833;53.238;6.576;2023-07-22T08:11:06;17.50;99.90
54930;DHT22;40833;53.238;6.576;2023-07-22T08:13:33;17.70;99.90
54930;DHT22;40833;53.238;6.576;2023-07-22T08:16:01;17.80;99.90
54930;DHT22;40833;53.238;6.576;2023-07-22T08:18:27;17.90;99.90
54930;DHT22;40833;53.238;6.576;2023-07-22T08:20:53;18.00;99.90
54930;DHT22;40833;53.238;6.576;2023-07-22T08:23:19;18.10;99.90
54930;DHT22;40833;53.238;6.576;2023-07-22T08:25:45;18.30;99.90
54930;DHT22;40833;53.238;6.576;2023-07-22T08:28:11;18.30;99.90
54930;DHT22;40833;53.238;6.576;2023-07-22T08:30:37;18.50;99.90
54930;DHT22;40833;53.238;6.576;2023-07-22T08:33:06;18.60;99.90
54930;DHT22;40833;53.238;6.576;2023-07-22T08:35:34;18.60;99.90
54930;DHT22;40833;53.238;6.576;2023-07-22T08:38:00;18.70;99.90
54930;DHT22;40833;53.238;6.576;2023-07-22T08:40:32;18.70;99.90
54930;DHT22;40833;53.238;6.576;2023-07-22T08:42:58;18.70;99.90
54930;DHT22;40833;53.238;6.576;2023-07-22T08:45:25;18.70;99.90
54930;DHT22;40833;53.238;6.576;2023-07-22T08:47:55;18.70;99.90
54930;DHT22;40833;53.238;6.576;2023-07-22T08:50:26;18.70;99.90
54930;DHT22;40833;53.238;6.576;2023-07-22T08:52:53;18.80;99.90
54930;DHT22;40833;53.238;6.576;2023-07-22T08:55:19;18.90;99.90
54930;DHT22;40833;53.238;6.576;2023-07-22T08:57:46;19.10;99.90
54930;DHT22;40833;53.238;6.576;2023-07-22T09:00:14;19.20;99.90
54930;DHT22;40833;53.238;6.576;2023-07-22T09:02:41;19.20;99.90
54930;DHT22;40833;53.238;6.576;2023-07-22T09:05:07;19.30;99.90
54930;DHT22;40833;53.238;6.576;2023-07-22T09:07:35;19.40;99.90
54930;DHT22;40833;53.238;6.576;2023-07-22T09:10:02;19.60;99.90
54930;DHT22;40833;53.238;6.576;2023-07-22T09:12:28;19.80;99.90
54930;DHT22;40833;53.238;6.576;2023-07-22T09:14:54;20.00;99.90
54930;DHT22;40833;53.238;6.576;2023-07-22T09:17:21;20.10;99.90
54930;DHT22;40833;53.238;6.576;2023-07-22T09:19:54;20.10;99.90
54930;DHT22;40833;53.238;6.576;2023-07-22T09:22:25;20.10;99.90
54930;DHT22;40833;53.238;6.576;2023-07-22T09:24:51;20.00;99.90
54930;DHT22;40833;53.238;6.576;2023-07-22T09:27:33;19.80;99.90
54930;DHT22;40833;53.238;6.576;2023-07-22T09:29:59;19.50;99.90
54930;DHT22;40833;53.238;6.576;2023-07-22T09:32:35;19.20;99.90
54930;DHT22;40833;53.238;6.576;2023-07-22T09:35:02;19.00;99.90
54930;DHT22;40833;53.238;6.576;2023-07-22T09:37:36;18.80;99.90
54930;DHT22;40833;53.238;6.576;2023-07-22T09:42:55;18.50;99.90
54930;DHT22;40833;53.238;6.576;2023-07-22T09:45:24;18.20;99.90
54930;DHT22;40833;53.238;6.576;2023-07-22T09:47:51;17.90;99.90
54930;DHT22;40833;53.238;6.576;2023-07-22T09:50:22;17.60;99.90
54930;DHT22;40833;53.238;6.576;2023-07-22T09:52:54;17.50;99.90
54930;DHT22;40833;53.238;6.576;2023-07-22T09:55:28;17.40;99.90
54930;DHT22;40833;53.238;6.576;2023-07-22T09:58:04;17.30;99.90
54930;DHT22;40833;53.238;6.576;2023-07-22T10:00:37;17.30;99.90
54930;DHT22;40833;53.238;6.576;2023-07-22T10:03:04;17.30;99.90
54930;DHT22;40833;53.238;6.576;2023-07-22T10:05:38;17.40;99.90
54930;DHT22;40833;53.238;6.576;2023-07-22T10:08:05;17.50;99.90
54930;DHT22;40833;53.238;6.576;2023-07-22T10:10:37;17.60;99.90
54930;DHT22;40833;53.238;6.576;2023-07-22T10:13:03;17.60;99.90
54930;DHT22;40833;53.238;6.576;2023-07-22T10:15:33;17.70;99.90
54930;DHT22;40833;53.238;6.576;2023-07-22T10:18:01;17.80;99.90
54930;DHT22;40833;53.238;6.576;2023-07-22T10:20:28;17.70;99.90
54930;DHT22;40833;53.238;6.576;2023-07-22T10:22:55;17.70;99.90
54930;DHT22;40833;53.238;6.576;2023-07-22T10:25:22;17.70;99.90
54930;DHT22;40833;53.238;6.576;2023-07-22T10:27:49;17.70;99.90
54930;DHT22;40833;53.238;6.576;2023-07-22T10:30:16;17.70;99.90
54930;DHT22;40833;53.238;6.576;2023-07-22T10:32:47;17.70;99.90
54930;DHT22;40833;53.238;6.576;2023-07-22T10:38:17;17.70;99.90
54930;DHT22;40833;53.238;6.576;2023-07-22T10:40:53;17.70;99.90
54930;DHT22;40833;53.238;6.576;2023-07-22T10:43:29;17.80;99.90
54930;DHT22;40833;53.238;6.576;2023-07-22T10:45:57;17.90;99.90
54930;DHT22;40833;53.238;6.576;2023-07-22T10:48:33;17.90;99.90
54930;DHT22;40833;53.238;6.576;2023-07-22T10:51:06;17.80;99.90
54930;DHT22;40833;53.238;6.576;2023-07-22T10:53:31;17.80;99.90
54930;DHT22;40833;53.238;6.576;2023-07-22T11:07:06;17.60;99.90
54930;DHT22;40833;53.238;6.576;2023-07-22T11:09:37;17.50;99.90
54930;DHT22;40833;53.238;6.576;2023-07-22T11:12:16;17.50;99.90
54930;DHT22;40833;53.238;6.576;2023-07-22T11:14:49;17.50;99.90
54930;DHT22;40833;53.238;6.576;2023-07-22T11:17:16;17.40;99.90
54930;DHT22;40833;53.238;6.576;2023-07-22T11:19:43;17.30;99.90
54930;DHT22;40833;53.238;6.576;2023-07-22T11:22:09;17.20;99.90
54930;DHT22;40833;53.238;6.576;2023-07-22T11:24:39;17.10;99.90
54930;DHT22;40833;53.238;6.576;2023-07-22T11:27:09;17.10;99.90
54930;DHT22;40833;53.238;6.576;2023-07-22T11:29:36;17.10;99.90
54930;DHT22;40833;53.238;6.576;2023-07-22T11:32:02;17.10;99.90
54930;DHT22;40833;53.238;6.576;2023-07-22T11:34:28;17.10;99.90
54930;DHT22;40833;53.238;6.576;2023-07-22T11:36:55;17.10;99.90
54930;DHT22;40833;53.238;6.576;2023-07-22T11:39:24;17.00;99.90
54930;DHT22;40833;53.238;6.576;2023-07-22T11:41:51;17.10;99.90
54930;DHT22;40833;53.238;6.576;2023-07-22T11:44:19;17.10;99.90
54930;DHT22;40833;53.238;6.576;2023-07-22T11:46:59;17.10;99.90
54930;DHT22;40833;53.238;6.576;2023-07-22T11:49:30;17.10;99.90
54930;DHT22;40833;53.238;6.576;2023-07-22T11:52:19;17.10;99.90
54930;DHT22;40833;53.238;6.576;2023-07-22T11:54:46;17.00;99.90
54930;DHT22;40833;53.238;6.576;2023-07-22T11:57:21;17.00;99.90
54930;DHT22;40833;53.238;6.576;2023-07-22T11:59:55;17.00;99.90
54930;DHT22;40833;53.238;6.576;2023-07-22T12:02:25;17.00;99.90
54930;DHT22;40833;53.238;6.576;2023-07-22T12:05:05;17.10;99.90
54930;DHT22;40833;53.238;6.576;2023-07-22T12:07:35;17.30;99.90
54930;DHT22;40833;53.238;6.576;2023-07-22T12:10:03;17.40;99.90
54930;DHT22;40833;53.238;6.576;2023-07-22T12:12:39;17.50;99.90
54930;DHT22;40833;53.238;6.576;2023-07-22T12:15:17;17.60;99.90
54930;DHT22;40833;53.238;6.576;2023-07-22T12:18:07;17.70;99.90
54930;DHT22;40833;53.238;6.576;2023-07-22T12:20:45;17.60;99.90
54930;DHT22;40833;53.238;6.576;2023-07-22T12:23:22;17.50;99.90
54930;DHT22;40833;53.238;6.576;2023-07-22T12:25:48;17.40;99.90
54930;DHT22;40833;53.238;6.576;2023-07-22T12:28:27;17.30;99.90
54930;DHT22;40833;53.238;6.576;2023-07-22T12:30:55;17.20;99.90
54930;DHT22;40833;53.238;6.576;2023-07-22T12:33:25;17.20;99.90
54930;DHT22;40833;53.238;6.576;2023-07-22T12:35:53;17.20;99.90
54930;DHT22;40833;53.238;6.576;2023-07-22T12:38:19;17.10;99.90
54930;DHT22;40833;53.238;6.576;2023-07-22T12:40:44;17.10;99.90
54930;DHT22;40833;53.238;6.576;2023-07-22T12:43:10;17.10;99.90
54930;DHT22;40833;53.238;6.576;2023-07-22T12:45:36;17.20;99.90
54930;DHT22;40833;53.238;6.576;2023-07-22T12:48:01;17.20;99.90
54930;DHT22;40833;53.238;6.576;2023-07-22T12:50:29;17.10;99.90
54930;DHT22;40833;53.238;6.576;2023-07-22T12:52:55;17.10;99.90
54930;DHT22;40833;53.238;6.576;2023-07-22T12:55:20;17.10;99.90
54930;DHT22;40833;53.238;6.576;2023-07-22T12:57:46;17.00;99.90
54930;DHT22;40833;53.238;6.576;2023-07-22T13:00:12;17.10;99.90
54930;DHT22;40833;53.238;6.576;2023-07-22T13:02:38;17.10;99.90
54930;DHT22;40833;53.238;6.576;2023-07-22T13:05:04;17.00;99.90
54930;DHT22;40833;53.238;6.576;2023-07-22T13:07:44;17.10;99.90
54930;DHT22;40833;53.238;6.576;2023-07-22T13:10:13;17.20;99.90
54930;DHT22;40833;53.238;6.576;2023-07-22T13:12:42;17.30;99.90
54930;DHT22;40833;53.238;6.576;2023-07-22T13:15:08;17.50;99.90
54930;DHT22;40833;53.238;6.576;2023-07-22T13:17:34;17.60;99.90
54930;DHT22;40833;53.238;6.576;2023-07-22T13:19:59;17.80;99.90
54930;DHT22;40833;53.238;6.576;2023-07-22T13:22:25;18.00;99.90
54930;DHT22;40833;53.238;6.576;2023-07-22T13:24:51;18.30;99.90
54930;DHT22;40833;53.238;6.576;2023-07-22T13:27:16;18.50;99.90
54930;DHT22;40833;53.238;6.576;2023-07-22T13:29:42;18.70;99.90
54930;DHT22;40833;53.238;6.576;2023-07-22T13:32:08;18.90;99.90
54930;DHT22;40833;53.238;6.576;2023-07-22T13:34:34;19.00;99.90
54930;DHT22;40833;53.238;6.576;2023-07-22T13:36:59;19.00;99.90
54930;DHT22;40833;53.238;6.576;2023-07-22T13:39:28;19.10;99.90
54930;DHT22;40833;53.238;6.576;2023-07-22T13:41:53;19.10;99.90
54930;DHT22;40833;53.238;6.576;2023-07-22T13:44:19;19.00;99.90
54930;DHT22;40833;53.238;6.576;2023-07-22T13:46:45;19.00;99.90
54930;DHT22;40833;53.238;6.576;2023-07-22T13:49:10;18.90;99.90
54930;DHT22;40833;53.238;6.576;2023-07-22T13:51:36;18.80;99.90
54930;DHT22;40833;53.238;6.576;2023-07-22T13:54:03;18.80;99.90
54930;DHT22;40833;53.238;6.576;2023-07-22T13:56:28;18.70;99.90
54930;DHT22;40833;53.238;6.576;2023-07-22T13:58:54;18.80;99.90
54930;DHT22;40833;53.238;6.576;2023-07-22T14:01:24;18.70;99.90
54930;DHT22;40833;53.238;6.576;2023-07-22T14:03:50;18.50;99.90
54930;DHT22;40833;53.238;6.576;2023-07-22T14:06:15;18.40;99.90
54930;DHT22;40833;53.238;6.576;2023-07-22T14:08:41;18.20;99.90
54930;DHT22;40833;53.238;6.576;2023-07-22T14:11:08;18.10;99.90
54930;DHT22;40833;53.238;6.576;2023-07-22T14:13:33;18.00;99.90
54930;DHT22;40833;53.238;6.576;2023-07-22T14:15:59;17.80;99.90
54930;DHT22;40833;53.238;6.576;2023-07-22T14:18:25;17.80;99.90
54930;DHT22;40833;53.238;6.576;2023-07-22T14:20:50;17.80;99.90
54930;DHT22;40833;53.238;6.576;2023-07-22T14:23:16;17.70;99.90
54930;DHT22;40833;53.238;6.576;2023-07-22T14:25:41;17.80;99.90
54930;DHT22;40833;53.238;6.576;2023-07-22T14:28:07;17.80;99.90
54930;DHT22;40833;53.238;6.576;2023-07-22T14:30:33;17.80;99.90
54930;DHT22;40833;53.238;6.576;2023-07-22T14:32:59;17.70;99.90
54930;DHT22;40833;53.238;6.576;2023-07-22T14:35:24;17.70;99.90
54930;DHT22;40833;53.238;6.576;2023-07-22T14:37:50;17.70;99.90
54930;DHT22;40833;53.238;6.576;2023-07-22T14:40:16;17.60;99.90
54930;DHT22;40833;53.238;6.576;2023-07-22T14:42:42;17.60;99.90
54930;DHT22;40833;53.238;6.576;2023-07-22T14:45:08;17.60;99.90
54930;DHT22;40833;53.238;6.576;2023-07-22T14:47:34;17.70;99.90
54930;DHT22;40833;53.238;6.576;2023-07-22T14:50:01;17.70;99.90
54930;DHT22;40833;53.238;6.576;2023-07-22T14:52:26;17.70;99.90
54930;DHT22;40833;53.238;6.576;2023-07-22T14:54:52;17.90;99.90
54930;DHT22;40833;53.238;6.576;2023-07-22T14:57:18;17.90;99.90
54930;DHT22;40833;53.238;6.576;2023-07-22T14:59:44;18.00;99.90
54930;DHT22;40833;53.238;6.576;2023-07-22T15:02:10;18.10;99.90
54930;DHT22;40833;53.238;6.576;2023-07-22T15:04:36;18.20;99.90
54930;DHT22;40833;53.238;6.576;2023-07-22T15:07:02;18.30;99.90
54930;DHT22;40833;53.238;6.576;2023-07-22T15:09:27;18.50;99.90
54930;DHT22;40833;53.238;6.576;2023-07-22T15:11:53;18.60;99.90
54930;DHT22;40833;53.238;6.576;2023-07-22T15:14:19;18.80;99.90
54930;DHT22;40833;53.238;6.576;2023-07-22T15:16:44;19.10;99.90
54930;DHT22;40833;53.238;6.576;2023-07-22T15:19:11;19.20;99.90
54930;DHT22;40833;53.238;6.576;2023-07-22T15:21:37;19.30;99.90
54930;DHT22;40833;53.238;6.576;2023-07-22T15:24:03;19.20;99.90
54930;DHT22;40833;53.238;6.576;2023-07-22T15:26:28;19.10;99.90
54930;DHT22;40833;53.238;6.576;2023-07-22T15:28:54;19.00;99.90
54930;DHT22;40833;53.238;6.576;2023-07-22T15:31:20;18.90;99.90
54930;DHT22;40833;53.238;6.576;2023-07-22T15:33:49;18.90;99.90
54930;DHT22;40833;53.238;6.576;2023-07-22T15:36:15;18.80;99.90
54930;DHT22;40833;53.238;6.576;2023-07-22T15:38:41;18.70;99.90
54930;DHT22;40833;53.238;6.576;2023-07-22T15:41:07;18.70;99.90
54930;DHT22;40833;53.238;6.576;2023-07-22T15:43:33;18.60;99.90
54930;DHT22;40833;53.238;6.576;2023-07-22T15:45:58;18.60;99.90
54930;DHT22;40833;53.238;6.576;2023-07-22T15:48:24;18.50;99.90
54930;DHT22;40833;53.238;6.576;2023-07-22T15:50:50;18.40;99.90